Portada
METAR-TAF:

METAR-TAF

Aeropuertos :

Aeropuerto de Comiso

Comiso, Italia

latitud: 36-59-30N, longitud: 14-36-25E, altitud: 190 m

Observación

El informe se hizo hace 38 minutos, a las 10:20 UTC
Viento 13 kt del oeste-suroeste
Temperatura 27°C
Humedad 51%
Presión 1014 hPa
Visibilidad 10 km o más
llovizna ligera, tormenta en las proximidades,

METAR: LICB 191020Z AUTO 25013KT 9999 -DZ VCTS FEW027/// 27/16 Q1014 RETSRA

Hora: 12:58 (10:58 UTC)

Pronóstico

El informe se hizo hace 5 horas y 58 minutos, a las 05:00 UTC
Pronóstico válido del 19 a las 06 UTC al 20 a las 06 UTC
Viento 5 kt con dirección variable
Visibilidad 10 km o más
Escasas nubes a una altura de 6000 ft
Evolucionando progresivamente
del 19 a las 07 UTC al 19 a las 09 UTC
Viento 14 kt del este
Temporalmente
del 19 a las 09 UTC al 19 a las 15 UTC
tormenta, lluvia,

TAF: LICB 190500Z 1906/2006 VRB05KT 9999 FEW060 BECMG 1907/1909 08014KT TEMPO 1909/1915 TSRA

Observaciones y pronósticos meteorológicos de más de 4000 aeropuertos (mensajes METAR y TAF).

Los puntos amarillos y rojos representan las estaciones disponibles.

Ponga el ratón en el punto deseado para ver el nombre de la estación.

Haga clic para ver las observaciones y los pronósticos meteorológicos.

Para cambiar el mapa : haga clic en los botones verdes con una cruz de color negro para hacer un zoom, en el botón verde con un guión para alejar o en las flechas verdes para mapas adyacentes.


METAR-TAF: